sensor_id;sensor_type;location;lat;lon;timestamp;temperature;humidity
20833;DHT22;56075;51.264;7.150;2022-11-06T00:02:10;8.40;99.90
20833;DHT22;56075;51.264;7.150;2022-11-06T00:04:41;8.50;99.90
20833;DHT22;56075;51.264;7.150;2022-11-06T00:07:12;8.50;99.90
20833;DHT22;56075;51.264;7.150;2022-11-06T00:09:43;8.40;99.90
20833;DHT22;56075;51.264;7.150;2022-11-06T00:12:14;8.50;99.90
20833;DHT22;56075;51.264;7.150;2022-11-06T00:14:45;8.40;99.90
20833;DHT22;56075;51.264;7.150;2022-11-06T00:17:16;8.40;99.90
20833;DHT22;56075;51.264;7.150;2022-11-06T00:19:47;8.10;99.90
20833;DHT22;56075;51.264;7.150;2022-11-06T00:22:18;8.30;99.90
20833;DHT22;56075;51.264;7.150;2022-11-06T00:24:50;8.50;99.90
20833;DHT22;56075;51.264;7.150;2022-11-06T00:27:21;8.60;99.90
20833;DHT22;56075;51.264;7.150;2022-11-06T00:29:52;8.20;99.90
20833;DHT22;56075;51.264;7.150;2022-11-06T00:32:23;8.00;99.90
20833;DHT22;56075;51.264;7.150;2022-11-06T00:45:00;8.20;99.90
20833;DHT22;56075;51.264;7.150;2022-11-06T00:50:03;8.10;99.90
20833;DHT22;56075;51.264;7.150;2022-11-06T00:55:06;8.40;99.90
20833;DHT22;56075;51.264;7.150;2022-11-06T00:57:37;8.40;99.90
20833;DHT22;56075;51.264;7.150;2022-11-06T01:10:16;8.40;99.90
20833;DHT22;56075;51.264;7.150;2022-11-06T01:40:39;8.20;99.90
20833;DHT22;56075;51.264;7.150;2022-11-06T01:50:55;8.20;99.90
20833;DHT22;56075;51.264;7.150;2022-11-06T01:53:28;8.10;99.90
20833;DHT22;56075;51.264;7.150;2022-11-06T01:56:02;8.20;99.90
20833;DHT22;56075;51.264;7.150;2022-11-06T02:08:43;8.20;99.90
20833;DHT22;56075;51.264;7.150;2022-11-06T02:14:01;8.10;99.90
20833;DHT22;56075;51.264;7.150;2022-11-06T02:30:04;8.40;99.90
20833;DHT22;56075;51.264;7.150;2022-11-06T02:38:04;8.00;99.90
20833;DHT22;56075;51.264;7.150;2022-11-06T02:40:42;8.00;99.90
20833;DHT22;56075;51.264;7.150;2022-11-06T02:43:15;8.00;99.90
20833;DHT22;56075;51.264;7.150;2022-11-06T02:45:58;8.10;99.90
20833;DHT22;56075;51.264;7.150;2022-11-06T02:48:36;8.10;99.90
20833;DHT22;56075;51.264;7.150;2022-11-06T02:56:22;8.10;99.90
20833;DHT22;56075;51.264;7.150;2022-11-06T02:59:00;8.10;99.90
20833;DHT22;56075;51.264;7.150;2022-11-06T03:07:10;8.10;99.90
20833;DHT22;56075;51.264;7.150;2022-11-06T03:09:42;8.00;99.90
20833;DHT22;56075;51.264;7.150;2022-11-06T03:12:53;8.00;99.90
20833;DHT22;56075;51.264;7.150;2022-11-06T03:18:27;8.10;99.90
20833;DHT22;56075;51.264;7.150;2022-11-06T03:21:08;8.20;99.90
20833;DHT22;56075;51.264;7.150;2022-11-06T03:23:47;8.20;99.90
20833;DHT22;56075;51.264;7.150;2022-11-06T03:26:25;8.20;99.90
20833;DHT22;56075;51.264;7.150;2022-11-06T03:31:54;8.00;99.90
20833;DHT22;56075;51.264;7.150;2022-11-06T03:34:37;8.10;99.90
20833;DHT22;56075;51.264;7.150;2022-11-06T03:37:13;7.80;99.90
20833;DHT22;56075;51.264;7.150;2022-11-06T03:39:50;8.20;99.90
20833;DHT22;56075;51.264;7.150;2022-11-06T03:42:26;8.10;99.90
20833;DHT22;56075;51.264;7.150;2022-11-06T03:47:36;8.00;99.90
20833;DHT22;56075;51.264;7.150;2022-11-06T04:02:59;7.70;99.90
20833;DHT22;56075;51.264;7.150;2022-11-06T04:05:41;8.10;99.90
20833;DHT22;56075;51.264;7.150;2022-11-06T04:11:05;8.00;99.90
20833;DHT22;56075;51.264;7.150;2022-11-06T04:13:58;7.90;99.90
20833;DHT22;56075;51.264;7.150;2022-11-06T04:19:09;8.00;99.90
20833;DHT22;56075;51.264;7.150;2022-11-06T04:22:15;8.10;99.90
20833;DHT22;56075;51.264;7.150;2022-11-06T04:30:32;7.90;99.90
20833;DHT22;56075;51.264;7.150;2022-11-06T04:44:09;8.10;99.90
20833;DHT22;56075;51.264;7.150;2022-11-06T04:46:51;8.00;99.90
20833;DHT22;56075;51.264;7.150;2022-11-06T04:49:23;8.00;99.90
20833;DHT22;56075;51.264;7.150;2022-11-06T04:51:57;8.00;99.90
20833;DHT22;56075;51.264;7.150;2022-11-06T04:54:29;8.00;99.90
20833;DHT22;56075;51.264;7.150;2022-11-06T04:57:02;8.00;99.90
20833;DHT22;56075;51.264;7.150;2022-11-06T04:59:34;8.10;99.90
20833;DHT22;56075;51.264;7.150;2022-11-06T05:02:06;8.00;99.90
20833;DHT22;56075;51.264;7.150;2022-11-06T05:04:37;8.00;99.90
20833;DHT22;56075;51.264;7.150;2022-11-06T05:07:12;8.40;99.90
20833;DHT22;56075;51.264;7.150;2022-11-06T05:09:43;8.30;99.90
20833;DHT22;56075;51.264;7.150;2022-11-06T05:12:15;7.90;99.90
20833;DHT22;56075;51.264;7.150;2022-11-06T05:14:46;8.30;99.90
20833;DHT22;56075;51.264;7.150;2022-11-06T05:17:17;8.20;99.90
20833;DHT22;56075;51.264;7.150;2022-11-06T05:19:48;8.10;99.90
20833;DHT22;56075;51.264;7.150;2022-11-06T05:22:19;8.00;99.90
20833;DHT22;56075;51.264;7.150;2022-11-06T05:25:10;8.10;99.90
20833;DHT22;56075;51.264;7.150;2022-11-06T05:27:41;8.20;99.90
20833;DHT22;56075;51.264;7.150;2022-11-06T05:30:12;8.30;99.90
20833;DHT22;56075;51.264;7.150;2022-11-06T05:32:43;8.20;99.90
20833;DHT22;56075;51.264;7.150;2022-11-06T05:35:15;8.20;99.90
20833;DHT22;56075;51.264;7.150;2022-11-06T05:37:46;8.00;99.90
20833;DHT22;56075;51.264;7.150;2022-11-06T05:40:17;8.20;99.90
20833;DHT22;56075;51.264;7.150;2022-11-06T05:42:49;8.20;99.90
20833;DHT22;56075;51.264;7.150;2022-11-06T05:45:20;7.90;99.90
20833;DHT22;56075;51.264;7.150;2022-11-06T05:47:51;8.10;99.90
20833;DHT22;56075;51.264;7.150;2022-11-06T05:50:22;8.20;99.90
20833;DHT22;56075;51.264;7.150;2022-11-06T05:52:53;8.30;99.90
20833;DHT22;56075;51.264;7.150;2022-11-06T05:55:24;7.70;99.90
20833;DHT22;56075;51.264;7.150;2022-11-06T05:57:55;8.00;99.90
20833;DHT22;56075;51.264;7.150;2022-11-06T06:00:26;8.00;99.90
20833;DHT22;56075;51.264;7.150;2022-11-06T06:05:29;7.90;99.90
20833;DHT22;56075;51.264;7.150;2022-11-06T06:08:00;8.20;99.90
20833;DHT22;56075;51.264;7.150;2022-11-06T06:10:31;8.10;99.90
20833;DHT22;56075;51.264;7.150;2022-11-06T06:13:02;7.80;99.90
20833;DHT22;56075;51.264;7.150;2022-11-06T06:18:05;7.70;99.90
20833;DHT22;56075;51.264;7.150;2022-11-06T06:20:36;7.90;99.90
20833;DHT22;56075;51.264;7.150;2022-11-06T06:25:40;8.00;99.90
20833;DHT22;56075;51.264;7.150;2022-11-06T06:40:48;8.00;99.90
20833;DHT22;56075;51.264;7.150;2022-11-06T06:48:22;8.20;99.90
20833;DHT22;56075;51.264;7.150;2022-11-06T06:50:57;8.00;99.90
20833;DHT22;56075;51.264;7.150;2022-11-06T06:56:01;8.00;99.90
20833;DHT22;56075;51.264;7.150;2022-11-06T07:01:04;8.00;99.90
20833;DHT22;56075;51.264;7.150;2022-11-06T07:03:37;7.90;99.90
20833;DHT22;56075;51.264;7.150;2022-11-06T07:06:08;8.10;99.90
20833;DHT22;56075;51.264;7.150;2022-11-06T07:08:39;8.20;99.90
20833;DHT22;56075;51.264;7.150;2022-11-06T07:11:10;8.20;99.90
20833;DHT22;56075;51.264;7.150;2022-11-06T07:13:41;8.20;99.90
20833;DHT22;56075;51.264;7.150;2022-11-06T07:16:12;8.30;99.90
20833;DHT22;56075;51.264;7.150;2022-11-06T07:21:15;8.20;99.90
20833;DHT22;56075;51.264;7.150;2022-11-06T07:26:17;8.10;99.90
20833;DHT22;56075;51.264;7.150;2022-11-06T07:28:49;8.20;99.90
20833;DHT22;56075;51.264;7.150;2022-11-06T07:33:51;8.20;99.90
20833;DHT22;56075;51.264;7.150;2022-11-06T07:36:22;8.30;99.90
20833;DHT22;56075;51.264;7.150;2022-11-06T07:41:25;8.40;99.90
20833;DHT22;56075;51.264;7.150;2022-11-06T07:46:27;8.30;99.90
20833;DHT22;56075;51.264;7.150;2022-11-06T07:51:30;8.30;99.90
20833;DHT22;56075;51.264;7.150;2022-11-06T08:01:36;8.60;99.90
20833;DHT22;56075;51.264;7.150;2022-11-06T08:04:07;8.60;99.90
20833;DHT22;56075;51.264;7.150;2022-11-06T08:09:09;8.50;99.90
20833;DHT22;56075;51.264;7.150;2022-11-06T08:16:43;8.80;99.90
20833;DHT22;56075;51.264;7.150;2022-11-06T08:21:46;8.90;99.90
20833;DHT22;56075;51.264;7.150;2022-11-06T08:24:17;9.00;99.90
20833;DHT22;56075;51.264;7.150;2022-11-06T08:29:20;9.10;99.90
20833;DHT22;56075;51.264;7.150;2022-11-06T08:36:54;9.30;99.90
20833;DHT22;56075;51.264;7.150;2022-11-06T08:41:57;9.20;99.90
20833;DHT22;56075;51.264;7.150;2022-11-06T08:44:28;9.10;99.90
20833;DHT22;56075;51.264;7.150;2022-11-06T08:46:59;9.40;99.90
20833;DHT22;56075;51.264;7.150;2022-11-06T08:49:30;9.20;99.90
20833;DHT22;56075;51.264;7.150;2022-11-06T08:57:04;9.40;99.90
20833;DHT22;56075;51.264;7.150;2022-11-06T09:02:11;9.70;99.90
20833;DHT22;56075;51.264;7.150;2022-11-06T09:07:15;9.90;99.90
20833;DHT22;56075;51.264;7.150;2022-11-06T09:09:46;10.10;99.90
20833;DHT22;56075;51.264;7.150;2022-11-06T09:12:17;11.00;99.90
20833;DHT22;56075;51.264;7.150;2022-11-06T09:14:48;10.00;99.90
20833;DHT22;56075;51.264;7.150;2022-11-06T09:17:19;10.40;99.90
20833;DHT22;56075;51.264;7.150;2022-11-06T09:19:53;10.50;99.90
20833;DHT22;56075;51.264;7.150;2022-11-06T09:22:24;11.70;99.90
20833;DHT22;56075;51.264;7.150;2022-11-06T09:24:55;10.40;99.90
20833;DHT22;56075;51.264;7.150;2022-11-06T09:27:27;12.00;99.90
20833;DHT22;56075;51.264;7.150;2022-11-06T09:29:58;10.60;99.90
20833;DHT22;56075;51.264;7.150;2022-11-06T09:32:29;10.80;99.90
20833;DHT22;56075;51.264;7.150;2022-11-06T09:35:00;10.80;99.90
20833;DHT22;56075;51.264;7.150;2022-11-06T09:37:32;10.80;99.90
20833;DHT22;56075;51.264;7.150;2022-11-06T09:40:03;11.10;99.90
20833;DHT22;56075;51.264;7.150;2022-11-06T09:42:50;11.10;99.90
20833;DHT22;56075;51.264;7.150;2022-11-06T09:45:27;11.20;99.90
20833;DHT22;56075;51.264;7.150;2022-11-06T09:54:21;11.10;99.90
20833;DHT22;56075;51.264;7.150;2022-11-06T09:56:47;11.50;99.90
20833;DHT22;56075;51.264;7.150;2022-11-06T09:59:20;12.60;99.90
20833;DHT22;56075;51.264;7.150;2022-11-06T10:01:54;11.30;99.90
20833;DHT22;56075;51.264;7.150;2022-11-06T10:04:50;11.30;99.90
20833;DHT22;56075;51.264;7.150;2022-11-06T10:07:40;11.30;99.90
20833;DHT22;56075;51.264;7.150;2022-11-06T10:10:20;11.30;99.90
20833;DHT22;56075;51.264;7.150;2022-11-06T10:13:10;11.30;99.90
20833;DHT22;56075;51.264;7.150;2022-11-06T10:16:54;11.30;99.90
20833;DHT22;56075;51.264;7.150;2022-11-06T10:24:45;11.50;99.90
20833;DHT22;56075;51.264;7.150;2022-11-06T10:30:18;11.30;99.90
20833;DHT22;56075;51.264;7.150;2022-11-06T10:33:07;11.60;99.90
20833;DHT22;56075;51.264;7.150;2022-11-06T10:36:10;11.80;99.90
20833;DHT22;56075;51.264;7.150;2022-11-06T10:38:47;12.00;99.90
20833;DHT22;56075;51.264;7.150;2022-11-06T10:41:26;11.90;99.90
20833;DHT22;56075;51.264;7.150;2022-11-06T10:44:03;11.90;99.90
20833;DHT22;56075;51.264;7.150;2022-11-06T10:46:38;12.00;99.90
20833;DHT22;56075;51.264;7.150;2022-11-06T10:49:36;12.00;99.90
20833;DHT22;56075;51.264;7.150;2022-11-06T10:55:31;12.20;99.90
20833;DHT22;56075;51.264;7.150;2022-11-06T10:58:11;12.90;99.90
20833;DHT22;56075;51.264;7.150;2022-11-06T11:00:43;12.50;99.90
20833;DHT22;56075;51.264;7.150;2022-11-06T11:03:30;12.40;99.90
20833;DHT22;56075;51.264;7.150;2022-11-06T11:06:02;12.40;99.90
20833;DHT22;56075;51.264;7.150;2022-11-06T11:08:40;12.50;99.90
20833;DHT22;56075;51.264;7.150;2022-11-06T11:11:24;12.20;99.90
20833;DHT22;56075;51.264;7.150;2022-11-06T11:16:31;12.10;99.90
20833;DHT22;56075;51.264;7.150;2022-11-06T11:19:37;12.30;99.90
20833;DHT22;56075;51.264;7.150;2022-11-06T11:27:37;12.20;99.90
20833;DHT22;56075;51.264;7.150;2022-11-06T11:30:24;13.70;99.90
20833;DHT22;56075;51.264;7.150;2022-11-06T11:32:56;12.30;99.90
20833;DHT22;56075;51.264;7.150;2022-11-06T11:35:29;12.20;99.90
20833;DHT22;56075;51.264;7.150;2022-11-06T11:38:12;12.20;99.90
20833;DHT22;56075;51.264;7.150;2022-11-06T11:40:44;12.40;99.90
20833;DHT22;56075;51.264;7.150;2022-11-06T11:43:26;12.30;99.90
20833;DHT22;56075;51.264;7.150;2022-11-06T11:48:52;12.70;99.90
20833;DHT22;56075;51.264;7.150;2022-11-06T11:51:36;12.30;99.90
20833;DHT22;56075;51.264;7.150;2022-11-06T11:56:56;12.40;99.90
20833;DHT22;56075;51.264;7.150;2022-11-06T11:59:30;12.20;99.90
20833;DHT22;56075;51.264;7.150;2022-11-06T12:02:26;12.30;99.90
20833;DHT22;56075;51.264;7.150;2022-11-06T12:05:06;12.40;99.90
20833;DHT22;56075;51.264;7.150;2022-11-06T12:07:46;12.10;99.90
20833;DHT22;56075;51.264;7.150;2022-11-06T12:10:38;12.10;99.90
20833;DHT22;56075;51.264;7.150;2022-11-06T12:18:18;12.40;99.90
20833;DHT22;56075;51.264;7.150;2022-11-06T12:21:03;12.40;99.90
20833;DHT22;56075;51.264;7.150;2022-11-06T12:29:34;12.70;99.90
20833;DHT22;56075;51.264;7.150;2022-11-06T12:35:28;12.80;99.90
20833;DHT22;56075;51.264;7.150;2022-11-06T12:38:09;12.80;99.90
20833;DHT22;56075;51.264;7.150;2022-11-06T12:43:46;14.20;99.90
20833;DHT22;56075;51.264;7.150;2022-11-06T12:55:06;12.60;99.90
20833;DHT22;56075;51.264;7.150;2022-11-06T12:58:04;12.60;99.90
20833;DHT22;56075;51.264;7.150;2022-11-06T13:01:04;12.40;99.90
20833;DHT22;56075;51.264;7.150;2022-11-06T13:09:29;12.60;99.90
20833;DHT22;56075;51.264;7.150;2022-11-06T13:12:20;13.20;99.90
20833;DHT22;56075;51.264;7.150;2022-11-06T13:18:00;12.30;99.90
20833;DHT22;56075;51.264;7.150;2022-11-06T13:20:42;12.30;99.90
20833;DHT22;56075;51.264;7.150;2022-11-06T13:28:53;12.70;99.90
20833;DHT22;56075;51.264;7.150;2022-11-06T13:34:17;12.50;99.90
20833;DHT22;56075;51.264;7.150;2022-11-06T13:36:52;12.50;99.90
20833;DHT22;56075;51.264;7.150;2022-11-06T13:40:00;12.60;99.90
20833;DHT22;56075;51.264;7.150;2022-11-06T13:42:35;12.50;99.90
20833;DHT22;56075;51.264;7.150;2022-11-06T13:45:08;12.40;99.90
20833;DHT22;56075;51.264;7.150;2022-11-06T13:53:38;13.30;99.90
20833;DHT22;56075;51.264;7.150;2022-11-06T13:56:47;12.40;99.90
20833;DHT22;56075;51.264;7.150;2022-11-06T14:07:48;12.50;99.90
20833;DHT22;56075;51.264;7.150;2022-11-06T14:10:31;12.40;99.90
20833;DHT22;56075;51.264;7.150;2022-11-06T14:13:05;13.40;99.90
20833;DHT22;56075;51.264;7.150;2022-11-06T14:15:38;12.30;99.90
20833;DHT22;56075;51.264;7.150;2022-11-06T14:18:19;12.30;99.90
20833;DHT22;56075;51.264;7.150;2022-11-06T14:26:50;12.30;99.90
20833;DHT22;56075;51.264;7.150;2022-11-06T14:34:33;12.50;99.90
20833;DHT22;56075;51.264;7.150;2022-11-06T14:42:35;11.80;99.90
20833;DHT22;56075;51.264;7.150;2022-11-06T14:45:16;11.90;99.90
20833;DHT22;56075;51.264;7.150;2022-11-06T14:47:51;12.60;99.90
20833;DHT22;56075;51.264;7.150;2022-11-06T14:50:38;11.80;99.90
20833;DHT22;56075;51.264;7.150;2022-11-06T14:53:30;11.80;99.90
20833;DHT22;56075;51.264;7.150;2022-11-06T14:56:07;11.90;99.90
20833;DHT22;56075;51.264;7.150;2022-11-06T14:58:49;11.80;99.90
20833;DHT22;56075;51.264;7.150;2022-11-06T15:01:31;11.80;99.90
20833;DHT22;56075;51.264;7.150;2022-11-06T15:04:17;12.10;99.90
20833;DHT22;56075;51.264;7.150;2022-11-06T15:06:50;11.80;99.90
20833;DHT22;56075;51.264;7.150;2022-11-06T15:12:00;11.80;99.90
20833;DHT22;56075;51.264;7.150;2022-11-06T15:17:11;11.60;99.90
20833;DHT22;56075;51.264;7.150;2022-11-06T15:19:46;11.50;99.90
20833;DHT22;56075;51.264;7.150;2022-11-06T15:22:32;11.60;99.90
20833;DHT22;56075;51.264;7.150;2022-11-06T15:27:54;11.50;99.90
20833;DHT22;56075;51.264;7.150;2022-11-06T15:30:27;11.70;99.90
20833;DHT22;56075;51.264;7.150;2022-11-06T15:33:01;11.30;99.90
20833;DHT22;56075;51.264;7.150;2022-11-06T15:35:34;12.60;99.90
20833;DHT22;56075;51.264;7.150;2022-11-06T15:38:18;11.90;99.90
20833;DHT22;56075;51.264;7.150;2022-11-06T15:40:52;12.60;99.90
20833;DHT22;56075;51.264;7.150;2022-11-06T15:43:31;11.30;99.90
20833;DHT22;56075;51.264;7.150;2022-11-06T15:49:15;11.40;99.90
20833;DHT22;56075;51.264;7.150;2022-11-06T15:52:00;11.20;99.90
20833;DHT22;56075;51.264;7.150;2022-11-06T15:54:37;10.80;99.90
20833;DHT22;56075;51.264;7.150;2022-11-06T15:57:24;10.70;99.90
20833;DHT22;56075;51.264;7.150;2022-11-06T16:02:49;10.30;99.90
20833;DHT22;56075;51.264;7.150;2022-11-06T16:05:20;10.30;99.90
20833;DHT22;56075;51.264;7.150;2022-11-06T16:07:53;10.10;99.90
20833;DHT22;56075;51.264;7.150;2022-11-06T16:10:26;9.90;99.90
20833;DHT22;56075;51.264;7.150;2022-11-06T16:12:58;9.80;99.90
20833;DHT22;56075;51.264;7.150;2022-11-06T16:20:50;9.40;99.90
20833;DHT22;56075;51.264;7.150;2022-11-06T16:23:26;9.40;99.90
20833;DHT22;56075;51.264;7.150;2022-11-06T16:26:02;9.20;99.90
20833;DHT22;56075;51.264;7.150;2022-11-06T16:28:34;9.20;99.90
20833;DHT22;56075;51.264;7.150;2022-11-06T16:31:14;9.20;99.90
20833;DHT22;56075;51.264;7.150;2022-11-06T16:36:27;9.10;99.90
20833;DHT22;56075;51.264;7.150;2022-11-06T16:52:26;9.00;99.90
20833;DHT22;56075;51.264;7.150;2022-11-06T16:57:44;8.60;99.90
20833;DHT22;56075;51.264;7.150;2022-11-06T17:03:06;8.70;99.90
20833;DHT22;56075;51.264;7.150;2022-11-06T17:05:38;8.90;99.90
20833;DHT22;56075;51.264;7.150;2022-11-06T17:13:43;8.60;99.90
20833;DHT22;56075;51.264;7.150;2022-11-06T17:16:18;8.90;99.90
20833;DHT22;56075;51.264;7.150;2022-11-06T17:18:50;8.90;99.90
20833;DHT22;56075;51.264;7.150;2022-11-06T17:21:23;8.80;99.90
20833;DHT22;56075;51.264;7.150;2022-11-06T17:23:55;8.90;99.90
20833;DHT22;56075;51.264;7.150;2022-11-06T17:26:28;8.90;99.90
20833;DHT22;56075;51.264;7.150;2022-11-06T17:29:00;8.90;99.90
20833;DHT22;56075;51.264;7.150;2022-11-06T17:31:32;9.00;99.90
20833;DHT22;56075;51.264;7.150;2022-11-06T17:34:03;9.00;99.90
20833;DHT22;56075;51.264;7.150;2022-11-06T17:36:36;9.10;99.90
20833;DHT22;56075;51.264;7.150;2022-11-06T17:39:07;9.20;99.90
20833;DHT22;56075;51.264;7.150;2022-11-06T17:41:39;9.10;99.90
20833;DHT22;56075;51.264;7.150;2022-11-06T17:44:11;9.20;99.90
20833;DHT22;56075;51.264;7.150;2022-11-06T17:54:32;9.00;99.90
20833;DHT22;56075;51.264;7.150;2022-11-06T17:57:07;8.90;99.90
20833;DHT22;56075;51.264;7.150;2022-11-06T17:59:38;8.80;99.90
20833;DHT22;56075;51.264;7.150;2022-11-06T18:02:12;8.70;99.90
20833;DHT22;56075;51.264;7.150;2022-11-06T18:04:43;8.60;99.90
20833;DHT22;56075;51.264;7.150;2022-11-06T18:07:15;8.70;99.90
20833;DHT22;56075;51.264;7.150;2022-11-06T18:09:46;8.60;99.90
20833;DHT22;56075;51.264;7.150;2022-11-06T18:12:17;8.70;99.90
20833;DHT22;56075;51.264;7.150;2022-11-06T18:14:50;8.60;99.90
20833;DHT22;56075;51.264;7.150;2022-11-06T18:17:21;8.60;99.90
20833;DHT22;56075;51.264;7.150;2022-11-06T18:19:52;8.60;99.90
20833;DHT22;56075;51.264;7.150;2022-11-06T18:22:23;8.70;99.90
20833;DHT22;56075;51.264;7.150;2022-11-06T18:24:55;8.80;99.90
20833;DHT22;56075;51.264;7.150;2022-11-06T18:27:26;8.60;99.90
20833;DHT22;56075;51.264;7.150;2022-11-06T18:29:57;8.50;99.90
20833;DHT22;56075;51.264;7.150;2022-11-06T18:32:28;8.70;99.90
20833;DHT22;56075;51.264;7.150;2022-11-06T18:35:00;8.70;99.90
20833;DHT22;56075;51.264;7.150;2022-11-06T18:40:04;9.00;99.90
20833;DHT22;56075;51.264;7.150;2022-11-06T18:42:36;9.10;99.90
20833;DHT22;56075;51.264;7.150;2022-11-06T18:45:07;8.90;99.90
20833;DHT22;56075;51.264;7.150;2022-11-06T18:47:38;9.20;99.90
20833;DHT22;56075;51.264;7.150;2022-11-06T18:50:09;9.00;99.90
20833;DHT22;56075;51.264;7.150;2022-11-06T18:52:41;9.20;99.90
20833;DHT22;56075;51.264;7.150;2022-11-06T18:57:43;9.30;99.90
20833;DHT22;56075;51.264;7.150;2022-11-06T19:02:46;9.30;99.90
20833;DHT22;56075;51.264;7.150;2022-11-06T19:05:17;9.30;99.90
20833;DHT22;56075;51.264;7.150;2022-11-06T19:07:48;9.40;99.90
20833;DHT22;56075;51.264;7.150;2022-11-06T19:10:19;9.30;99.90
20833;DHT22;56075;51.264;7.150;2022-11-06T19:12:50;9.30;99.90
20833;DHT22;56075;51.264;7.150;2022-11-06T19:15:21;9.40;99.90
20833;DHT22;56075;51.264;7.150;2022-11-06T19:17:53;9.30;99.90
20833;DHT22;56075;51.264;7.150;2022-11-06T19:20:24;9.40;99.90
20833;DHT22;56075;51.264;7.150;2022-11-06T19:25:27;9.50;99.90
20833;DHT22;56075;51.264;7.150;2022-11-06T19:27:59;9.40;99.90
20833;DHT22;56075;51.264;7.150;2022-11-06T19:30:30;9.40;99.90
20833;DHT22;56075;51.264;7.150;2022-11-06T19:33:01;9.60;99.90
20833;DHT22;56075;51.264;7.150;2022-11-06T19:35:35;9.70;99.90
20833;DHT22;56075;51.264;7.150;2022-11-06T19:38:06;9.50;99.90
20833;DHT22;56075;51.264;7.150;2022-11-06T19:43:09;9.70;99.90
20833;DHT22;56075;51.264;7.150;2022-11-06T19:45:40;9.70;99.90
20833;DHT22;56075;51.264;7.150;2022-11-06T19:48:11;9.70;99.90
20833;DHT22;56075;51.264;7.150;2022-11-06T19:53:21;9.80;99.90
20833;DHT22;56075;51.264;7.150;2022-11-06T19:55:53;9.70;99.90
20833;DHT22;56075;51.264;7.150;2022-11-06T19:58:25;9.60;99.90
20833;DHT22;56075;51.264;7.150;2022-11-06T20:00:57;9.70;99.90
20833;DHT22;56075;51.264;7.150;2022-11-06T20:05:59;10.00;99.90
20833;DHT22;56075;51.264;7.150;2022-11-06T20:08:30;9.90;99.90
20833;DHT22;56075;51.264;7.150;2022-11-06T20:11:07;9.70;99.90
20833;DHT22;56075;51.264;7.150;2022-11-06T20:13:42;9.90;99.90
20833;DHT22;56075;51.264;7.150;2022-11-06T20:16:16;9.80;99.90
20833;DHT22;56075;51.264;7.150;2022-11-06T20:18:57;9.70;99.90
20833;DHT22;56075;51.264;7.150;2022-11-06T20:26:32;9.90;99.90
20833;DHT22;56075;51.264;7.150;2022-11-06T20:29:03;9.90;99.90
20833;DHT22;56075;51.264;7.150;2022-11-06T20:31:34;10.00;99.90
20833;DHT22;56075;51.264;7.150;2022-11-06T20:34:06;9.90;99.90
20833;DHT22;56075;51.264;7.150;2022-11-06T20:36:37;9.90;99.90
20833;DHT22;56075;51.264;7.150;2022-11-06T20:41:40;9.90;99.90
20833;DHT22;56075;51.264;7.150;2022-11-06T20:46:42;10.10;99.90
20833;DHT22;56075;51.264;7.150;2022-11-06T20:49:13;9.90;99.90
20833;DHT22;56075;51.264;7.150;2022-11-06T20:51:44;9.90;99.90
20833;DHT22;56075;51.264;7.150;2022-11-06T20:56:47;10.10;99.90
20833;DHT22;56075;51.264;7.150;2022-11-06T20:59:20;9.90;99.90
20833;DHT22;56075;51.264;7.150;2022-11-06T21:01:52;10.10;99.90
20833;DHT22;56075;51.264;7.150;2022-11-06T21:04:23;10.10;99.90
20833;DHT22;56075;51.264;7.150;2022-11-06T21:06:55;11.90;99.90
20833;DHT22;56075;51.264;7.150;2022-11-06T21:09:26;11.30;99.90
20833;DHT22;56075;51.264;7.150;2022-11-06T21:11:57;10.10;99.90
20833;DHT22;56075;51.264;7.150;2022-11-06T21:14:28;10.20;99.90
20833;DHT22;56075;51.264;7.150;2022-11-06T21:17:00;10.00;99.90
20833;DHT22;56075;51.264;7.150;2022-11-06T21:19:34;10.10;99.90
20833;DHT22;56075;51.264;7.150;2022-11-06T21:22:05;10.10;99.90
20833;DHT22;56075;51.264;7.150;2022-11-06T21:24:37;10.10;99.90
20833;DHT22;56075;51.264;7.150;2022-11-06T21:27:08;10.00;99.90
20833;DHT22;56075;51.264;7.150;2022-11-06T21:29:40;10.00;99.90
20833;DHT22;56075;51.264;7.150;2022-11-06T21:32:11;10.00;99.90
20833;DHT22;56075;51.264;7.150;2022-11-06T21:34:42;10.00;99.90
20833;DHT22;56075;51.264;7.150;2022-11-06T21:37:14;9.70;99.90
20833;DHT22;56075;51.264;7.150;2022-11-06T21:39:45;9.80;99.90
20833;DHT22;56075;51.264;7.150;2022-11-06T21:42:16;9.60;99.90
20833;DHT22;56075;51.264;7.150;2022-11-06T21:44:47;9.90;99.90
20833;DHT22;56075;51.264;7.150;2022-11-06T21:47:18;9.90;99.90
20833;DHT22;56075;51.264;7.150;2022-11-06T21:49:49;10.10;99.90
20833;DHT22;56075;51.264;7.150;2022-11-06T21:52:24;9.90;99.90
20833;DHT22;56075;51.264;7.150;2022-11-06T21:55:13;10.00;99.90
20833;DHT22;56075;51.264;7.150;2022-11-06T21:58:03;10.00;99.90
20833;DHT22;56075;51.264;7.150;2022-11-06T22:00:38;10.20;99.90
20833;DHT22;56075;51.264;7.150;2022-11-06T22:03:09;9.90;99.90
20833;DHT22;56075;51.264;7.150;2022-11-06T22:05:40;10.20;99.90
20833;DHT22;56075;51.264;7.150;2022-11-06T22:08:12;10.30;99.90
20833;DHT22;56075;51.264;7.150;2022-11-06T22:10:43;10.30;99.90
20833;DHT22;56075;51.264;7.150;2022-11-06T22:13:14;10.20;99.90
20833;DHT22;56075;51.264;7.150;2022-11-06T22:15:46;10.50;99.90
20833;DHT22;56075;51.264;7.150;2022-11-06T22:18:17;10.30;99.90
20833;DHT22;56075;51.264;7.150;2022-11-06T22:20:48;10.30;99.90
20833;DHT22;56075;51.264;7.150;2022-11-06T22:23:19;10.40;99.90
20833;DHT22;56075;51.264;7.150;2022-11-06T22:25:50;10.40;99.90
20833;DHT22;56075;51.264;7.150;2022-11-06T22:28:21;10.20;99.90
20833;DHT22;56075;51.264;7.150;2022-11-06T22:30:52;10.30;99.90
20833;DHT22;56075;51.264;7.150;2022-11-06T22:33:23;10.50;99.90
20833;DHT22;56075;51.264;7.150;2022-11-06T22:36:10;10.40;99.90
20833;DHT22;56075;51.264;7.150;2022-11-06T22:38:43;10.40;99.90
20833;DHT22;56075;51.264;7.150;2022-11-06T22:41:16;11.70;99.90
20833;DHT22;56075;51.264;7.150;2022-11-06T22:43:47;10.50;99.90
20833;DHT22;56075;51.264;7.150;2022-11-06T22:46:20;10.50;99.90
20833;DHT22;56075;51.264;7.150;2022-11-06T22:48:52;10.40;99.90
20833;DHT22;56075;51.264;7.150;2022-11-06T22:51:25;10.50;99.90
20833;DHT22;56075;51.264;7.150;2022-11-06T22:53:57;10.50;99.90
20833;DHT22;56075;51.264;7.150;2022-11-06T22:56:30;10.50;99.90
20833;DHT22;56075;51.264;7.150;2022-11-06T22:59:03;10.70;99.90
20833;DHT22;56075;51.264;7.150;2022-11-06T23:01:36;10.60;99.90
20833;DHT22;56075;51.264;7.150;2022-11-06T23:04:09;10.60;99.90
20833;DHT22;56075;51.264;7.150;2022-11-06T23:06:44;11.00;99.90
20833;DHT22;56075;51.264;7.150;2022-11-06T23:09:15;10.40;99.90
20833;DHT22;56075;51.264;7.150;2022-11-06T23:11:46;10.50;99.90
20833;DHT22;56075;51.264;7.150;2022-11-06T23:14:18;10.60;99.90
20833;DHT22;56075;51.264;7.150;2022-11-06T23:19:34;10.70;99.90
20833;DHT22;56075;51.264;7.150;2022-11-06T23:22:05;10.40;99.90
20833;DHT22;56075;51.264;7.150;2022-11-06T23:24:55;10.40;99.90
20833;DHT22;56075;51.264;7.150;2022-11-06T23:27:26;10.70;99.90
20833;DHT22;56075;51.264;7.150;2022-11-06T23:29:57;10.60;99.90
20833;DHT22;56075;51.264;7.150;2022-11-06T23:32:33;10.60;99.90